createdAt,value
2018-05-15T00:01:56.326Z,39.80
2018-05-15T00:04:22.514Z,39.80
2018-05-15T00:06:48.693Z,39.90
2018-05-15T00:09:14.868Z,40.10
2018-05-15T00:11:41.066Z,40.10
2018-05-15T00:14:07.262Z,40.20
2018-05-15T00:16:34.219Z,40.50
2018-05-15T00:19:00.616Z,40.60
2018-05-15T00:21:26.838Z,40.60
2018-05-15T00:23:53.066Z,40.70
2018-05-15T00:26:19.276Z,40.80
2018-05-15T00:28:45.455Z,40.90
2018-05-15T00:31:12.452Z,41.00
2018-05-15T00:33:38.642Z,41.20
2018-05-15T00:36:04.861Z,41.30
2018-05-15T00:38:31.027Z,41.40
2018-05-15T00:40:57.231Z,41.40
2018-05-15T00:43:23.437Z,41.60
2018-05-15T00:45:49.601Z,41.80
2018-05-15T00:48:15.822Z,41.90
2018-05-15T00:50:42.465Z,41.90
2018-05-15T00:53:08.714Z,42.10
2018-05-15T00:55:42.146Z,42.20
2018-05-15T00:58:09.114Z,42.50
2018-05-15T01:00:36.376Z,42.50
2018-05-15T01:03:03.311Z,42.60
2018-05-15T01:05:30.239Z,43.00
2018-05-15T01:07:57.245Z,42.70
2018-05-15T01:10:23.427Z,42.70
2018-05-15T01:12:50.468Z,42.90
2018-05-15T01:15:16.641Z,43.10
2018-05-15T01:17:43.583Z,43.40
2018-05-15T01:20:10.500Z,43.50
2018-05-15T01:22:36.652Z,43.60
2018-05-15T01:25:02.830Z,43.60
2018-05-15T01:27:29.081Z,44.30
2018-05-15T01:29:55.413Z,43.80
2018-05-15T01:32:21.630Z,43.90
2018-05-15T01:34:47.847Z,44.40
2018-05-15T01:37:14.795Z,44.10
2018-05-15T01:39:41.741Z,44.10
2018-05-15T01:42:07.968Z,44.20
2018-05-15T01:44:34.158Z,44.10
2018-05-15T01:47:00.370Z,44.30
2018-05-15T01:49:26.564Z,44.30
2018-05-15T01:51:52.738Z,44.40
2018-05-15T01:54:18.960Z,44.50
2018-05-15T01:56:45.181Z,44.50
2018-05-15T01:59:12.138Z,44.70
2018-05-15T02:01:39.063Z,44.80
2018-05-15T02:04:06.574Z,44.90
2018-05-15T02:06:32.764Z,45.00
2018-05-15T02:08:58.951Z,45.20
2018-05-15T02:11:25.188Z,45.30
2018-05-15T02:13:51.376Z,45.40
2018-05-15T02:16:17.561Z,45.50
2018-05-15T02:18:43.714Z,45.50
2018-05-15T02:21:09.938Z,45.60
2018-05-15T02:23:36.130Z,45.80
2018-05-15T02:26:02.918Z,46.00
2018-05-15T02:28:29.094Z,46.00
2018-05-15T02:30:56.003Z,47.00
2018-05-15T02:33:22.939Z,46.40
2018-05-15T02:35:49.151Z,46.40
2018-05-15T02:38:15.328Z,46.40
2018-05-15T02:40:41.581Z,46.60
2018-05-15T02:43:07.827Z,46.70
2018-05-15T02:45:34.766Z,46.90
2018-05-15T02:48:00.937Z,46.90
2018-05-15T02:50:27.175Z,47.00
2018-05-15T02:52:53.361Z,47.00
2018-05-15T02:55:19.565Z,47.10
2018-05-15T02:57:45.751Z,47.20
2018-05-15T03:00:12.700Z,47.30
2018-05-15T03:02:38.925Z,47.40
2018-05-15T03:05:05.858Z,48.10
2018-05-15T03:07:32.051Z,47.60
2018-05-15T03:09:58.237Z,47.70
2018-05-15T03:12:24.424Z,47.80
2018-05-15T03:14:50.609Z,48.00
2018-05-15T03:17:17.560Z,48.30
2018-05-15T03:19:45.177Z,48.40
2018-05-15T03:22:11.779Z,48.40
2018-05-15T03:24:37.982Z,48.40
2018-05-15T03:27:04.578Z,48.60
2018-05-15T03:29:30.773Z,48.70
2018-05-15T03:31:58.446Z,49.10
2018-05-15T03:34:24.669Z,49.10
2018-05-15T03:36:50.898Z,49.00
2018-05-15T03:39:17.127Z,49.00
2018-05-15T03:41:43.354Z,49.10
2018-05-15T03:44:09.587Z,49.20
2018-05-15T03:46:35.767Z,49.30
2018-05-15T03:49:02.726Z,49.50
2018-05-15T03:51:29.645Z,49.60
2018-05-15T03:53:55.812Z,49.70
2018-05-15T03:56:22.026Z,49.70
2018-05-15T03:58:48.963Z,49.90
2018-05-15T04:01:34.728Z,49.90
2018-05-15T04:04:19.649Z,50.00
2018-05-15T04:07:04.654Z,49.90
2018-05-15T04:09:30.850Z,49.90
2018-05-15T04:11:57.088Z,49.80
2018-05-15T04:14:23.713Z,49.90
2018-05-15T04:16:50.044Z,50.00
2018-05-15T04:19:17.022Z,50.20
2018-05-15T04:21:43.422Z,50.20
2018-05-15T04:24:10.359Z,50.90
2018-05-15T04:26:37.304Z,50.30
2018-05-15T04:29:03.506Z,50.30
2018-05-15T04:31:29.760Z,50.40
2018-05-15T04:33:56.000Z,50.40
2018-05-15T04:36:22.213Z,50.60
2018-05-15T04:38:48.475Z,50.60
2018-05-15T04:41:14.672Z,50.70
2018-05-15T04:43:41.714Z,50.80
2018-05-15T04:46:07.745Z,50.80
2018-05-15T04:48:33.991Z,50.80
2018-05-15T04:51:00.216Z,50.80
2018-05-15T04:53:26.496Z,50.70
2018-05-15T04:55:52.755Z,50.70
2018-05-15T04:58:19.740Z,50.60
2018-05-15T05:00:46.681Z,50.60
2018-05-15T05:03:12.908Z,50.70
2018-05-15T05:05:39.127Z,50.60
2018-05-15T05:08:05.341Z,50.50
2018-05-15T05:10:31.564Z,50.50
2018-05-15T05:12:57.816Z,50.40
2018-05-15T05:15:24.765Z,50.40
2018-05-15T05:17:51.015Z,50.40
2018-05-15T05:20:18.001Z,50.40
2018-05-15T05:22:44.197Z,50.40
2018-05-15T05:25:10.395Z,50.40
2018-05-15T05:27:36.670Z,50.50
2018-05-15T05:30:03.595Z,50.60
2018-05-15T05:32:30.126Z,50.60
2018-05-15T05:34:56.349Z,50.60
2018-05-15T05:37:22.524Z,50.40
2018-05-15T05:39:48.680Z,50.20
2018-05-15T05:42:14.852Z,50.00
2018-05-15T05:44:41.077Z,49.80
2018-05-15T05:47:07.310Z,49.40
2018-05-15T05:49:33.513Z,48.60
2018-05-15T05:51:59.727Z,47.90
2018-05-15T05:54:25.923Z,47.30
2018-05-15T05:56:52.080Z,46.70
2018-05-15T05:59:18.257Z,46.40
2018-05-15T06:01:44.492Z,46.10
2018-05-15T06:04:11.018Z,45.80
2018-05-15T06:06:37.945Z,45.60
2018-05-15T06:09:04.976Z,45.60
2018-05-15T06:11:31.925Z,45.80
2018-05-15T06:13:58.187Z,46.30
2018-05-15T06:16:24.409Z,46.00
2018-05-15T06:18:50.641Z,46.10
2018-05-15T06:21:16.821Z,46.20
2018-05-15T06:23:43.029Z,46.40
2018-05-15T06:26:10.546Z,46.60
2018-05-15T06:28:36.738Z,46.90
2018-05-15T06:31:03.680Z,46.70
2018-05-15T06:33:30.644Z,46.50
2018-05-15T06:35:58.370Z,46.40
2018-05-15T06:38:24.739Z,46.10
2018-05-15T06:40:50.937Z,45.60
2018-05-15T06:43:17.180Z,44.80
2018-05-15T06:45:43.429Z,44.20
2018-05-15T06:48:09.654Z,43.50
2018-05-15T06:50:35.867Z,42.90
2018-05-15T06:53:02.095Z,42.40
2018-05-15T06:55:29.293Z,41.80
2018-05-15T06:57:55.531Z,41.20
2018-05-15T07:00:21.706Z,40.60
2018-05-15T07:02:47.917Z,39.90
2018-05-15T07:05:14.879Z,38.90
2018-05-15T07:07:41.122Z,38.80
2018-05-15T07:10:07.314Z,38.60
2018-05-15T07:12:34.281Z,37.80
2018-05-15T07:15:01.229Z,37.30
2018-05-15T07:17:28.189Z,36.80
2018-05-15T07:19:54.391Z,36.60
2018-05-15T07:22:20.554Z,36.30
2018-05-15T07:24:46.762Z,35.80
2018-05-15T07:27:13.821Z,34.40
2018-05-15T07:29:39.977Z,34.30
2018-05-15T07:32:06.217Z,33.60
2018-05-15T07:34:32.432Z,32.90
2018-05-15T07:36:59.439Z,31.60
2018-05-15T07:39:25.708Z,31.60
2018-05-15T07:41:51.899Z,31.60
2018-05-15T07:44:18.088Z,31.40
2018-05-15T07:46:44.278Z,30.90
2018-05-15T07:49:10.465Z,30.60
2018-05-15T07:51:37.435Z,30.00
2018-05-15T07:54:03.638Z,30.00
2018-05-15T07:56:30.161Z,30.00
2018-05-15T07:58:57.208Z,29.80
2018-05-15T08:01:23.427Z,29.70
2018-05-15T08:03:49.655Z,29.60
2018-05-15T08:06:15.910Z,29.50
2018-05-15T08:08:42.183Z,29.20
2018-05-15T08:11:09.236Z,28.60
2018-05-15T08:13:35.466Z,28.60
2018-05-15T08:16:01.701Z,28.50
2018-05-15T08:18:28.632Z,28.90
2018-05-15T08:20:54.832Z,28.80
2018-05-15T08:23:21.058Z,29.00
2018-05-15T08:25:47.305Z,29.30
2018-05-15T08:28:13.493Z,29.50
2018-05-15T08:30:39.743Z,30.00
2018-05-15T08:33:05.972Z,29.50
2018-05-15T08:35:32.126Z,29.70
2018-05-15T08:37:58.330Z,29.60
2018-05-15T08:40:25.264Z,28.70
2018-05-15T08:42:51.475Z,28.60
2018-05-15T08:45:17.733Z,28.20
2018-05-15T08:47:43.873Z,27.60
2018-05-15T08:50:11.066Z,27.30
2018-05-15T08:52:37.283Z,27.30
2018-05-15T08:55:03.472Z,27.30
2018-05-15T08:57:29.663Z,27.50
2018-05-15T08:59:56.057Z,28.20
2018-05-15T09:02:22.240Z,27.60
2018-05-15T09:04:48.448Z,27.20
2018-05-15T09:07:15.392Z,26.80
2018-05-15T09:09:42.339Z,26.60
2018-05-15T09:12:09.233Z,26.40
2018-05-15T09:14:35.429Z,26.30
2018-05-15T09:17:02.388Z,25.90
2018-05-15T09:19:28.587Z,25.90
2018-05-15T09:21:54.790Z,25.90
2018-05-15T09:24:21.057Z,26.20
2018-05-15T09:26:48.063Z,26.40
2018-05-15T09:29:14.302Z,26.40
2018-05-15T09:31:41.021Z,26.60
2018-05-15T09:34:07.234Z,26.80
2018-05-15T09:36:34.154Z,27.00
2018-05-15T09:39:00.437Z,27.00
2018-05-15T09:41:26.645Z,27.00
2018-05-15T09:43:53.101Z,26.70
2018-05-15T09:46:19.320Z,26.30
2018-05-15T09:48:46.314Z,25.70
2018-05-15T09:51:13.451Z,25.60
2018-05-15T09:53:40.396Z,25.20
2018-05-15T09:56:07.377Z,24.90
2018-05-15T09:58:34.322Z,24.90
2018-05-15T10:01:00.580Z,24.80
2018-05-15T10:03:26.764Z,24.90
2018-05-15T10:05:53.742Z,24.90
2018-05-15T10:08:20.262Z,24.80
2018-05-15T10:10:46.493Z,24.70
2018-05-15T10:13:13.421Z,25.10
2018-05-15T10:15:39.595Z,25.00
2018-05-15T10:18:05.839Z,25.30
2018-05-15T10:20:32.020Z,25.30
2018-05-15T10:22:59.180Z,25.30
2018-05-15T10:25:25.411Z,25.20
2018-05-15T10:27:51.593Z,25.20
2018-05-15T10:30:17.817Z,25.50
2018-05-15T10:32:44.021Z,25.90
2018-05-15T10:35:10.232Z,26.20
2018-05-15T10:37:36.480Z,26.60
2018-05-15T10:40:02.725Z,27.00
2018-05-15T10:42:29.714Z,27.70
2018-05-15T10:44:55.906Z,27.60
2018-05-15T10:47:22.107Z,28.00
2018-05-15T10:49:48.318Z,28.30
2018-05-15T10:52:14.514Z,28.90
2018-05-15T10:54:40.713Z,30.10
2018-05-15T10:57:06.967Z,33.20
2018-05-15T10:59:33.247Z,35.90
2018-05-15T11:02:00.256Z,39.40
2018-05-15T11:04:26.429Z,39.50
2018-05-15T11:06:53.350Z,48.50
2018-05-15T11:09:19.637Z,48.50
2018-05-15T11:11:45.927Z,52.70
2018-05-15T11:14:12.269Z,56.30
2018-05-15T11:16:39.299Z,61.60
2018-05-15T11:19:24.114Z,61.60
2018-05-15T11:22:09.633Z,67.30
2018-05-15T11:24:51.119Z,67.20
2018-05-15T11:27:17.390Z,69.50
2018-05-15T11:29:43.717Z,72.00
2018-05-15T11:32:10.952Z,74.00
2018-05-15T11:34:38.071Z,76.70
2018-05-15T11:37:05.270Z,76.70
2018-05-15T11:39:31.565Z,77.40
2018-05-15T11:41:57.852Z,78.90
2018-05-15T11:44:24.832Z,81.80
2018-05-15T11:46:51.119Z,81.80
2018-05-15T11:49:18.628Z,82.80
2018-05-15T11:51:44.270Z,83.20
2018-05-15T11:54:09.932Z,83.50
2018-05-15T11:56:36.181Z,83.70
2018-05-15T11:59:02.550Z,84.10
2018-05-15T12:01:28.910Z,84.80
2018-05-15T12:03:55.198Z,86.10
2018-05-15T12:06:22.325Z,86.90
2018-05-15T12:08:50.253Z,88.60
2018-05-15T12:11:16.495Z,88.50
2018-05-15T12:13:42.946Z,89.00
2018-05-15T12:16:09.372Z,88.90
2018-05-15T12:18:35.709Z,89.00
2018-05-15T12:21:01.951Z,89.40
2018-05-15T12:23:28.094Z,89.50
2018-05-15T12:25:54.372Z,89.40
2018-05-15T12:28:21.324Z,90.10
2018-05-15T12:30:48.346Z,89.90
2018-05-15T12:33:14.543Z,89.60
2018-05-15T12:35:40.844Z,89.40
2018-05-15T12:38:07.825Z,88.00
2018-05-15T12:40:34.098Z,87.90
2018-05-15T12:43:00.369Z,87.80
2018-05-15T12:45:26.583Z,87.50
2018-05-15T12:47:52.813Z,87.00
2018-05-15T12:50:19.013Z,86.90
2018-05-15T12:52:45.201Z,86.90
2018-05-15T12:55:11.554Z,86.80
2018-05-15T12:57:38.504Z,85.80
2018-05-15T13:00:04.798Z,85.60
2018-05-15T13:02:31.105Z,84.60
2018-05-15T13:04:57.370Z,83.60
2018-05-15T13:07:25.163Z,83.10
2018-05-15T13:09:51.414Z,83.00
2018-05-15T13:12:17.641Z,82.80
2018-05-15T13:14:45.511Z,80.90
2018-05-15T13:17:12.540Z,80.80
2018-05-15T13:19:38.722Z,80.60
2018-05-15T13:22:04.993Z,80.70
2018-05-15T13:24:31.285Z,80.60
2018-05-15T13:26:58.385Z,80.20
2018-05-15T13:29:24.640Z,80.20
2018-05-15T13:31:50.868Z,80.80
2018-05-15T13:34:17.096Z,80.70
2018-05-15T13:36:43.372Z,81.40
2018-05-15T13:39:09.617Z,81.30
2018-05-15T13:41:35.903Z,81.50
2018-05-15T13:44:02.169Z,81.40
2018-05-15T13:46:29.165Z,81.00
2018-05-15T13:48:55.407Z,80.80
2018-05-15T13:51:21.621Z,80.50
2018-05-15T13:53:47.849Z,80.30
2018-05-15T13:56:14.057Z,79.50
2018-05-15T13:58:41.815Z,78.00
2018-05-15T14:01:08.038Z,77.60
2018-05-15T14:03:34.241Z,78.20
2018-05-15T14:06:00.429Z,76.10
2018-05-15T14:08:27.374Z,73.00
2018-05-15T14:10:53.662Z,72.80
2018-05-15T14:13:19.853Z,71.90
2018-05-15T14:15:46.072Z,71.00
2018-05-15T14:18:13.020Z,69.00
2018-05-15T14:20:40.218Z,69.00
2018-05-15T14:23:06.419Z,68.70
2018-05-15T14:25:33.386Z,68.70
2018-05-15T14:28:00.330Z,68.30
2018-05-15T14:30:26.541Z,68.10
2018-05-15T14:32:53.513Z,67.70
2018-05-15T14:35:20.520Z,67.50
2018-05-15T14:37:46.761Z,67.30
2018-05-15T14:40:13.061Z,67.30
2018-05-15T14:42:58.036Z,67.40
2018-05-15T14:45:24.953Z,67.30
2018-05-15T14:47:51.237Z,67.00
2018-05-15T14:50:17.448Z,67.00
2018-05-15T14:52:43.654Z,66.90
2018-05-15T14:55:10.593Z,66.50
2018-05-15T14:57:37.117Z,66.30
2018-05-15T15:00:03.374Z,66.30
2018-05-15T15:02:30.303Z,66.20
2018-05-15T15:04:56.536Z,66.10
2018-05-15T15:07:22.760Z,66.00
2018-05-15T15:09:48.937Z,65.80
2018-05-15T15:12:15.869Z,64.80
2018-05-15T15:14:42.854Z,64.30
2018-05-15T15:17:09.109Z,64.10
2018-05-15T15:19:35.340Z,63.60
2018-05-15T15:22:01.527Z,63.20
2018-05-15T15:24:27.766Z,62.90
2018-05-15T15:26:54.716Z,62.50
2018-05-15T15:29:22.013Z,62.20
2018-05-15T15:31:48.204Z,62.10
2018-05-15T15:34:15.890Z,62.00
2018-05-15T15:36:42.842Z,62.20
2018-05-15T15:39:09.078Z,62.00
2018-05-15T15:41:36.048Z,62.00
2018-05-15T15:44:02.335Z,61.70
2018-05-15T15:46:28.559Z,61.90
2018-05-15T15:48:54.827Z,62.10
2018-05-15T15:51:21.828Z,62.20
2018-05-15T15:53:48.039Z,62.00
2018-05-15T15:56:14.268Z,62.10
2018-05-15T15:58:40.685Z,62.00
2018-05-15T16:01:07.192Z,61.80
2018-05-15T16:03:34.225Z,61.80
2018-05-15T16:06:00.510Z,61.60
2018-05-15T16:08:26.752Z,61.70
2018-05-15T16:10:53.723Z,61.50
2018-05-15T16:13:20.010Z,61.30
2018-05-15T16:15:46.282Z,61.10
2018-05-15T16:18:13.184Z,59.90
2018-05-15T16:20:39.394Z,59.80
2018-05-15T16:23:06.426Z,59.30
2018-05-15T16:25:32.650Z,59.20
2018-05-15T16:27:59.608Z,59.00
2018-05-15T16:30:25.842Z,58.90
2018-05-15T16:32:52.030Z,58.80
2018-05-15T16:35:18.265Z,58.70
2018-05-15T16:37:45.327Z,58.50
2018-05-15T16:40:11.552Z,58.40
2018-05-15T16:42:37.774Z,58.50
2018-05-15T16:45:04.003Z,58.60
2018-05-15T16:47:30.214Z,58.70
2018-05-15T16:49:56.448Z,58.80
2018-05-15T16:52:22.704Z,58.80
2018-05-15T16:54:48.947Z,58.70
2018-05-15T16:57:15.893Z,58.80
2018-05-15T16:59:42.110Z,58.70
2018-05-15T17:02:08.377Z,58.90
2018-05-15T17:04:34.623Z,59.10
2018-05-15T17:07:01.183Z,59.20
2018-05-15T17:09:28.330Z,59.80
2018-05-15T17:11:54.602Z,59.20
2018-05-15T17:14:20.928Z,59.40
2018-05-15T17:16:47.206Z,59.30
2018-05-15T17:19:13.465Z,59.30
2018-05-15T17:21:39.718Z,59.20
2018-05-15T17:24:06.680Z,59.20
2018-05-15T17:26:32.951Z,59.10
2018-05-15T17:28:59.153Z,59.20
2018-05-15T17:31:25.380Z,59.30
2018-05-15T17:33:52.334Z,59.10
2018-05-15T17:36:19.450Z,59.10
2018-05-15T17:38:46.089Z,59.00
2018-05-15T17:41:12.360Z,59.70
2018-05-15T17:43:39.311Z,59.40
2018-05-15T17:46:05.598Z,59.30
2018-05-15T17:48:31.926Z,59.50
2018-05-15T17:50:58.215Z,59.60
2018-05-15T17:53:24.796Z,59.70
2018-05-15T17:55:51.088Z,59.70
2018-05-15T17:58:18.241Z,59.80
2018-05-15T18:00:44.567Z,59.70
2018-05-15T18:03:11.760Z,60.40
2018-05-15T18:05:38.021Z,59.60
2018-05-15T18:08:04.238Z,59.70
2018-05-15T18:10:30.585Z,59.70
2018-05-15T18:12:56.880Z,59.60
2018-05-15T18:15:23.947Z,59.60
2018-05-15T18:17:50.219Z,59.50
2018-05-15T18:20:16.510Z,59.60
2018-05-15T18:22:42.817Z,59.70
2018-05-15T18:25:09.086Z,59.70
2018-05-15T18:27:36.198Z,60.00
2018-05-15T18:30:03.088Z,60.90
2018-05-15T18:32:29.569Z,60.00
2018-05-15T18:34:56.676Z,60.20
2018-05-15T18:37:23.006Z,60.10
2018-05-15T18:39:50.016Z,60.30
2018-05-15T18:42:17.201Z,60.20
2018-05-15T18:44:44.233Z,60.40
2018-05-15T18:47:10.539Z,60.30
2018-05-15T18:49:36.818Z,60.30
2018-05-15T18:52:03.055Z,60.40
2018-05-15T18:54:31.411Z,60.60
2018-05-15T18:56:57.694Z,60.50
2018-05-15T18:59:24.677Z,60.90
2018-05-15T19:01:50.992Z,60.80
2018-05-15T19:04:17.331Z,61.00
2018-05-15T19:06:43.708Z,61.10
2018-05-15T19:09:09.960Z,61.20
2018-05-15T19:11:37.160Z,61.30
2018-05-15T19:14:03.817Z,61.30
2018-05-15T19:16:30.198Z,61.40
2018-05-15T19:18:56.477Z,61.40
2018-05-15T19:21:23.718Z,61.50
2018-05-15T19:23:50.285Z,61.50
2018-05-15T19:26:16.827Z,61.60
2018-05-15T19:28:43.169Z,61.60
2018-05-15T19:31:15.222Z,61.70
2018-05-15T19:33:41.615Z,61.70
2018-05-15T19:36:09.762Z,61.70
2018-05-15T19:38:36.199Z,61.70
2018-05-15T19:41:02.461Z,61.60
2018-05-15T19:43:29.561Z,61.40
2018-05-15T19:45:56.647Z,61.50
2018-05-15T19:48:22.991Z,61.40
2018-05-15T19:50:49.295Z,61.50
2018-05-15T19:53:16.301Z,61.60
2018-05-15T19:55:42.631Z,61.50
2018-05-15T19:58:08.959Z,61.70
2018-05-15T20:00:36.018Z,61.80
2018-05-15T20:03:02.388Z,61.90
2018-05-15T20:05:28.656Z,62.00
2018-05-15T20:07:54.970Z,62.00
2018-05-15T20:10:22.002Z,62.40
2018-05-15T20:12:49.041Z,62.50
2018-05-15T20:15:15.270Z,62.50
2018-05-15T20:17:41.587Z,62.60
2018-05-15T20:20:07.957Z,62.70
2018-05-15T20:22:34.893Z,62.70
2018-05-15T20:25:01.308Z,62.70
2018-05-15T20:27:27.995Z,62.80
2018-05-15T20:29:54.524Z,62.80
2018-05-15T20:32:21.541Z,62.90
2018-05-15T20:34:48.289Z,62.80
2018-05-15T20:37:15.237Z,62.90
2018-05-15T20:39:43.262Z,63.00
2018-05-15T20:42:09.574Z,63.00
2018-05-15T20:44:35.922Z,63.20
2018-05-15T20:47:02.193Z,63.20
2018-05-15T20:49:28.527Z,63.30
2018-05-15T20:51:54.787Z,63.30
2018-05-15T20:54:21.165Z,63.50
2018-05-15T20:56:48.225Z,63.70
2018-05-15T20:59:14.554Z,63.60
2018-05-15T21:01:40.918Z,63.70
2018-05-15T21:04:08.192Z,64.10
2018-05-15T21:06:34.535Z,64.00
2018-05-15T21:09:00.882Z,64.20
2018-05-15T21:11:27.899Z,64.70
2018-05-15T21:13:54.318Z,64.60
2018-05-15T21:16:20.694Z,64.80
2018-05-15T21:18:47.678Z,64.90
2018-05-15T21:21:14.277Z,64.90
2018-05-15T21:23:41.466Z,65.00
2018-05-15T21:26:07.889Z,65.00
2018-05-15T21:28:34.979Z,65.00
2018-05-15T21:31:01.364Z,64.90
2018-05-15T21:33:27.702Z,65.00
2018-05-15T21:35:54.453Z,65.00
2018-05-15T21:38:22.187Z,65.20
2018-05-15T21:40:48.452Z,65.00
2018-05-15T21:43:14.674Z,65.20
2018-05-15T21:45:40.986Z,65.30
2018-05-15T21:48:08.082Z,65.40
2018-05-15T21:50:34.305Z,65.40
2018-05-15T21:53:01.367Z,66.40
2018-05-15T21:55:29.284Z,65.60
2018-05-15T21:57:55.520Z,65.80
2018-05-15T22:00:21.774Z,65.90
2018-05-15T22:02:48.146Z,66.00
2018-05-15T22:05:14.390Z,65.90
2018-05-15T22:07:40.600Z,65.90
2018-05-15T22:10:06.830Z,65.90
2018-05-15T22:12:53.496Z,65.80
2018-05-15T22:15:44.581Z,65.70
2018-05-15T22:18:36.371Z,65.50
2018-05-15T22:21:27.528Z,65.40
2018-05-15T22:23:59.795Z,65.50
2018-05-15T22:26:26.171Z,65.60
2018-05-15T22:28:52.401Z,65.70
2018-05-15T22:31:19.510Z,65.80
2018-05-15T22:33:45.836Z,65.90
2018-05-15T22:36:12.135Z,65.80
2018-05-15T22:38:39.201Z,65.80
2018-05-15T22:41:05.430Z,65.80
2018-05-15T22:43:31.702Z,65.80
2018-05-15T22:45:58.001Z,65.80
2018-05-15T22:48:24.283Z,65.80
2018-05-15T22:50:51.290Z,65.90
2018-05-15T22:53:17.610Z,65.90
2018-05-15T22:55:45.863Z,65.90
2018-05-15T22:58:12.154Z,65.90
2018-05-15T23:00:39.173Z,66.10
2018-05-15T23:03:05.458Z,66.10
2018-05-15T23:05:31.717Z,66.10
2018-05-15T23:07:57.978Z,66.20
2018-05-15T23:10:24.190Z,66.30
2018-05-15T23:12:50.441Z,66.30
2018-05-15T23:15:16.706Z,66.40
2018-05-15T23:17:43.366Z,66.40
2018-05-15T23:20:10.375Z,66.60
2018-05-15T23:22:41.550Z,66.50
2018-05-15T23:25:07.839Z,66.60
2018-05-15T23:27:34.567Z,66.60
2018-05-15T23:30:01.516Z,66.70
2018-05-15T23:32:28.583Z,66.80
2018-05-15T23:34:54.798Z,66.80
2018-05-15T23:37:22.045Z,67.00
2018-05-15T23:39:49.099Z,66.40
2018-05-15T23:42:16.164Z,67.00
2018-05-15T23:44:42.450Z,67.80
2018-05-15T23:47:08.707Z,67.00
2018-05-15T23:49:35.894Z,67.10
2018-05-15T23:52:02.876Z,67.20
2018-05-15T23:54:29.153Z,67.20
2018-05-15T23:56:55.435Z,67.20
2018-05-15T23:59:21.692Z,67.30
